createdAt,value
2023-05-05T00:00:26.904Z,74.27
2023-05-05T00:01:26.759Z,74.17
2023-05-05T00:02:26.788Z,74.27
2023-05-05T00:03:26.825Z,74.48
2023-05-05T00:04:26.705Z,74.81
2023-05-05T00:05:26.705Z,75.01
2023-05-05T00:06:26.679Z,75.12
2023-05-05T00:07:26.673Z,74.91
2023-05-05T00:08:26.688Z,75.01
2023-05-05T00:09:26.652Z,75.32
2023-05-05T00:10:26.641Z,75.62
2023-05-05T00:11:26.620Z,75.35
2023-05-05T00:12:26.618Z,75.76
2023-05-05T00:13:26.612Z,75.86
2023-05-05T00:14:26.621Z,76.06
2023-05-05T00:15:26.578Z,76.17
2023-05-05T00:16:26.588Z,76.27
2023-05-05T00:17:26.583Z,76.37
2023-05-05T00:18:26.576Z,76.37
2023-05-05T00:19:26.530Z,76.47
2023-05-05T00:20:26.519Z,76.27
2023-05-05T00:21:26.517Z,76.37
2023-05-05T00:22:26.500Z,76.47
2023-05-05T00:23:26.518Z,76.37
2023-05-05T00:24:26.491Z,76.37
2023-05-05T00:25:26.470Z,76.17
2023-05-05T00:26:26.480Z,76.17
2023-05-05T00:27:26.444Z,76.17
2023-05-05T00:28:26.442Z,76.27
2023-05-05T00:29:26.451Z,76.27
2023-05-05T00:30:26.425Z,76.17
2023-05-05T00:31:26.456Z,76.27
2023-05-05T00:32:26.422Z,76.17
2023-05-05T00:33:26.384Z,76.27
2023-05-05T00:34:26.400Z,76.47
2023-05-05T00:35:26.363Z,76.47
2023-05-05T00:36:26.359Z,76.47
2023-05-05T00:37:26.345Z,76.47
2023-05-05T00:38:26.356Z,76.57
2023-05-05T00:39:26.342Z,76.47
2023-05-05T00:40:26.331Z,76.06
2023-05-05T00:41:26.321Z,76.17
2023-05-05T00:42:26.292Z,76.17
2023-05-05T00:43:26.282Z,76.37
2023-05-05T00:44:26.272Z,76.37
2023-05-05T00:45:26.251Z,76.47
2023-05-05T00:46:26.334Z,76.47
2023-05-05T00:47:26.283Z,76.78
2023-05-05T00:48:26.217Z,76.57
2023-05-05T00:49:26.249Z,76.37
2023-05-05T00:50:26.202Z,76.57
2023-05-05T00:51:26.218Z,76.78
2023-05-05T00:52:26.184Z,76.67
2023-05-05T00:53:26.179Z,76.87
2023-05-05T00:54:26.167Z,76.67
2023-05-05T00:55:26.179Z,76.67
2023-05-05T00:56:26.140Z,76.78
2023-05-05T00:57:26.150Z,76.91
2023-05-05T00:58:26.148Z,77.12
2023-05-05T00:59:26.119Z,77.12
2023-05-05T01:00:26.089Z,77.01
2023-05-05T01:01:26.099Z,77.12
2023-05-05T01:02:26.185Z,77.01
2023-05-05T01:03:26.150Z,76.71
2023-05-05T01:04:26.078Z,76.91
2023-05-05T01:05:26.032Z,77.01
2023-05-05T01:06:26.034Z,77.32
2023-05-05T01:07:26.025Z,77.32
2023-05-05T01:08:26.004Z,77.22
2023-05-05T01:09:26.000Z,77.22
2023-05-05T01:10:26.421Z,77.32
2023-05-05T01:11:25.970Z,77.56
2023-05-05T01:12:25.971Z,77.42
2023-05-05T01:13:25.958Z,77.22
2023-05-05T01:14:25.965Z,77.42
2023-05-05T01:15:25.944Z,77.42
2023-05-05T01:16:25.938Z,77.52
2023-05-05T01:17:25.919Z,77.66
2023-05-05T01:18:25.893Z,77.56
2023-05-05T01:19:25.911Z,77.76
2023-05-05T01:20:25.873Z,77.86
2023-05-05T01:21:25.897Z,77.97
2023-05-05T01:22:25.848Z,78.06
2023-05-05T01:23:25.842Z,78.17
2023-05-05T01:24:25.834Z,78.17
2023-05-05T01:25:25.820Z,78.17
2023-05-05T01:26:25.818Z,77.76
2023-05-05T01:27:25.813Z,77.86
2023-05-05T01:28:25.787Z,77.86
2023-05-05T01:29:25.772Z,77.76
2023-05-05T01:30:25.761Z,77.76
2023-05-05T01:31:25.776Z,77.97
2023-05-05T01:32:25.828Z,77.45
2023-05-05T01:33:25.748Z,77.36
2023-05-05T01:34:25.727Z,77.45
2023-05-05T01:35:25.714Z,77.66
2023-05-05T01:36:25.705Z,77.76
2023-05-05T01:37:25.704Z,77.76
2023-05-05T01:38:25.699Z,77.76
2023-05-05T01:39:25.659Z,77.56
2023-05-05T01:40:25.648Z,77.76
2023-05-05T01:41:25.657Z,77.86
2023-05-05T01:42:25.637Z,77.86
2023-05-05T01:43:25.645Z,77.97
2023-05-05T01:44:25.607Z,77.86
2023-05-05T01:45:25.701Z,77.56
2023-05-05T01:46:25.585Z,77.56
2023-05-05T01:47:25.610Z,77.66
2023-05-05T01:48:25.590Z,77.76
2023-05-05T01:49:25.550Z,77.86
2023-05-05T01:50:25.544Z,78.06
2023-05-05T01:51:25.535Z,77.97
2023-05-05T01:52:25.517Z,78.06
2023-05-05T01:53:25.531Z,78.06
2023-05-05T01:54:25.498Z,78.06
2023-05-05T01:55:25.526Z,77.76
2023-05-05T01:56:25.486Z,77.66
2023-05-05T01:57:25.476Z,77.97
2023-05-05T01:58:25.457Z,77.66
2023-05-05T01:59:25.474Z,77.56
2023-05-05T02:00:25.449Z,77.76
2023-05-05T02:01:25.448Z,77.86
2023-05-05T02:02:25.499Z,78.06
2023-05-05T02:03:25.440Z,77.86
2023-05-05T02:04:25.412Z,77.56
2023-05-05T02:05:25.377Z,77.45
2023-05-05T02:06:25.362Z,77.36
2023-05-05T02:07:25.350Z,77.56
2023-05-05T02:08:25.348Z,77.36
2023-05-05T02:09:25.359Z,77.56
2023-05-05T02:10:25.324Z,77.36
2023-05-05T02:11:25.322Z,77.36
2023-05-05T02:12:25.296Z,77.36
2023-05-05T02:13:25.398Z,77.25
2023-05-05T02:14:25.301Z,77.15
2023-05-05T02:15:25.287Z,76.85
2023-05-05T02:16:25.263Z,76.95
2023-05-05T02:17:25.277Z,77.15
2023-05-05T02:18:25.238Z,77.05
2023-05-05T02:19:25.251Z,76.95
2023-05-05T02:20:25.222Z,76.91
2023-05-05T02:21:25.204Z,76.71
2023-05-05T02:22:25.197Z,76.54
2023-05-05T02:23:25.234Z,76.61
2023-05-05T02:24:25.171Z,76.75
2023-05-05T02:25:25.188Z,76.61
2023-05-05T02:26:25.168Z,76.75
2023-05-05T02:27:25.140Z,76.64
2023-05-05T02:28:25.137Z,76.75
2023-05-05T02:29:25.114Z,76.75
2023-05-05T02:30:25.110Z,76.75
2023-05-05T02:31:25.139Z,77.05
2023-05-05T02:32:25.121Z,77.25
2023-05-05T02:33:25.072Z,77.45
2023-05-05T02:34:25.087Z,77.70
2023-05-05T02:35:25.061Z,78.00
2023-05-05T02:36:25.046Z,78.20
2023-05-05T02:37:25.054Z,78.64
2023-05-05T02:38:25.021Z,78.95
2023-05-05T02:39:25.008Z,79.16
2023-05-05T02:40:25.005Z,79.36
2023-05-05T02:41:25.013Z,79.36
2023-05-05T02:42:24.984Z,79.56
2023-05-05T02:43:24.984Z,79.46
2023-05-05T02:44:24.959Z,79.56
2023-05-05T02:45:24.945Z,79.56
2023-05-05T02:46:24.992Z,79.46
2023-05-05T02:47:24.956Z,79.16
2023-05-05T02:48:24.906Z,79.16
2023-05-05T02:49:24.901Z,79.05
2023-05-05T02:50:24.888Z,78.95
2023-05-05T02:51:24.894Z,78.95
2023-05-05T02:52:24.864Z,78.95
2023-05-05T02:53:24.852Z,78.75
2023-05-05T02:54:24.849Z,78.85
2023-05-05T02:55:24.836Z,78.85
2023-05-05T02:56:24.846Z,78.64
2023-05-05T02:57:24.808Z,78.95
2023-05-05T02:58:24.808Z,78.85
2023-05-05T02:59:24.788Z,79.25
2023-05-05T03:00:24.783Z,79.25
2023-05-05T03:01:24.792Z,79.05
2023-05-05T03:02:24.873Z,79.46
2023-05-05T03:03:24.858Z,78.85
2023-05-05T03:04:24.756Z,78.64
2023-05-05T03:05:24.725Z,78.75
2023-05-05T03:06:24.708Z,79.16
2023-05-05T03:07:24.729Z,79.46
2023-05-05T03:08:24.691Z,79.46
2023-05-05T03:09:24.701Z,79.56
2023-05-05T03:10:24.679Z,79.25
2023-05-05T03:11:24.656Z,79.05
2023-05-05T03:12:24.656Z,78.95
2023-05-05T03:13:24.642Z,78.85
2023-05-05T03:14:24.659Z,79.05
2023-05-05T03:15:24.619Z,79.16
2023-05-05T03:16:24.633Z,79.02
2023-05-05T03:17:24.636Z,79.22
2023-05-05T03:18:24.582Z,79.12
2023-05-05T03:19:24.593Z,79.02
2023-05-05T03:20:24.570Z,79.22
2023-05-05T03:21:24.564Z,78.81
2023-05-05T03:22:24.541Z,78.61
2023-05-05T03:23:24.531Z,78.91
2023-05-05T03:24:24.530Z,79.12
2023-05-05T03:25:24.527Z,79.32
2023-05-05T03:26:24.493Z,79.42
2023-05-05T03:27:24.493Z,79.52
2023-05-05T03:28:24.476Z,79.32
2023-05-05T03:29:24.461Z,79.42
2023-05-05T03:30:24.467Z,79.32
2023-05-05T03:31:24.462Z,79.22
2023-05-05T03:32:24.472Z,79.46
2023-05-05T03:33:24.424Z,79.42
2023-05-05T03:34:24.405Z,79.72
2023-05-05T03:35:24.417Z,79.56
2023-05-05T03:36:25.113Z,79.46
2023-05-05T03:37:24.371Z,79.66
2023-05-05T03:38:24.360Z,79.97
2023-05-05T03:39:24.351Z,81.29
2023-05-05T03:40:36.322Z,81.29
2023-05-05T03:42:43.975Z,81.70
2023-05-05T03:42:49.366Z,81.49
2023-05-05T03:43:49.338Z,81.39
2023-05-05T03:44:49.340Z,82.10
2023-05-05T03:45:49.353Z,82.40
2023-05-05T03:46:49.317Z,82.40
2023-05-05T03:47:49.357Z,82.10
2023-05-05T03:48:49.296Z,82.51
2023-05-05T03:49:49.280Z,83.01
2023-05-05T03:50:49.282Z,83.06
2023-05-05T03:51:49.284Z,83.67
2023-05-05T03:52:49.251Z,83.97
2023-05-05T03:53:49.236Z,83.67
2023-05-05T03:54:49.232Z,82.65
2023-05-05T03:55:49.230Z,82.75
2023-05-05T03:56:49.205Z,83.36
2023-05-05T03:57:49.220Z,83.87
2023-05-05T03:58:49.340Z,83.87
2023-05-05T03:59:49.182Z,84.07
2023-05-05T04:00:49.170Z,84.28
2023-05-05T04:01:49.179Z,84.88
2023-05-05T04:02:49.158Z,84.99
2023-05-05T04:03:49.158Z,84.99
2023-05-05T04:04:49.123Z,84.78
2023-05-05T04:05:49.110Z,84.78
2023-05-05T04:06:49.141Z,84.99
2023-05-05T04:07:49.113Z,84.68
2023-05-05T04:08:49.077Z,84.48
2023-05-05T04:09:49.064Z,83.87
2023-05-05T04:10:49.105Z,82.65
2023-05-05T04:11:49.041Z,83.36
2023-05-05T04:12:49.180Z,83.67
2023-05-05T04:13:49.049Z,84.13
2023-05-05T04:14:49.021Z,84.58
2023-05-05T04:15:49.031Z,84.78
2023-05-05T04:16:48.991Z,85.09
2023-05-05T04:17:49.033Z,84.78
2023-05-05T04:18:48.972Z,84.68
2023-05-05T04:19:48.980Z,84.78
2023-05-05T04:20:49.002Z,84.28
2023-05-05T04:21:48.938Z,84.17
2023-05-05T04:22:50.770Z,83.67
2023-05-05T04:23:48.914Z,83.26
2023-05-05T04:24:48.955Z,83.87
2023-05-05T04:25:48.903Z,84.07
2023-05-05T04:26:48.895Z,84.17
2023-05-05T04:27:48.873Z,83.56
2023-05-05T04:28:48.867Z,83.56
2023-05-05T04:29:48.878Z,83.12
2023-05-05T04:30:48.850Z,82.51
2023-05-05T04:31:48.871Z,82.40
2023-05-05T04:32:48.929Z,82.81
2023-05-05T04:33:48.804Z,82.81
2023-05-05T04:34:48.839Z,82.92
2023-05-05T04:35:48.781Z,83.01
2023-05-05T04:36:48.779Z,83.22
2023-05-05T04:37:48.763Z,82.71
2023-05-05T04:38:48.783Z,82.37
2023-05-05T04:39:48.739Z,82.26
2023-05-05T04:40:48.754Z,82.06
2023-05-05T04:41:48.728Z,82.06
2023-05-05T04:42:48.733Z,81.86
2023-05-05T04:43:48.722Z,81.96
2023-05-05T04:44:48.695Z,81.86
2023-05-05T04:45:48.673Z,82.17
2023-05-05T04:46:48.728Z,82.26
2023-05-05T04:47:48.677Z,81.76
2023-05-05T04:48:48.647Z,81.66
2023-05-05T04:49:48.629Z,81.96
2023-05-05T04:50:48.629Z,82.26
2023-05-05T04:51:48.614Z,82.26
2023-05-05T04:52:48.756Z,81.96
2023-05-05T04:53:48.587Z,82.06
2023-05-05T04:54:48.594Z,82.37
2023-05-05T04:55:48.585Z,82.71
2023-05-05T04:56:48.558Z,82.81
2023-05-05T04:57:48.566Z,83.01
2023-05-05T04:58:48.556Z,83.12
2023-05-05T04:59:48.523Z,83.42
2023-05-05T05:00:48.518Z,83.56
2023-05-05T05:01:48.513Z,83.56
2023-05-05T05:02:48.531Z,84.17
2023-05-05T05:03:48.561Z,84.38
2023-05-05T05:04:48.462Z,84.38
2023-05-05T05:05:48.454Z,84.48
2023-05-05T05:06:48.443Z,84.68
2023-05-05T05:07:48.437Z,84.84
2023-05-05T05:08:48.453Z,84.78
2023-05-05T05:09:48.413Z,84.44
2023-05-05T05:10:48.411Z,84.23
2023-05-05T05:11:48.393Z,84.03
2023-05-05T05:12:48.411Z,84.03
2023-05-05T05:13:48.369Z,84.13
2023-05-05T05:14:48.384Z,84.23
2023-05-05T05:15:48.345Z,84.09
2023-05-05T05:16:48.570Z,84.34
2023-05-05T05:17:48.333Z,84.44
2023-05-05T05:18:48.314Z,84.13
2023-05-05T05:19:48.328Z,84.54
2023-05-05T05:20:48.305Z,84.80
2023-05-05T05:21:48.277Z,84.60
2023-05-05T05:22:48.275Z,84.30
2023-05-05T05:23:48.292Z,83.59
2023-05-05T05:24:48.268Z,83.54
2023-05-05T05:25:48.241Z,83.54
2023-05-05T05:26:48.229Z,83.45
2023-05-05T05:27:55.314Z,82.80
2023-05-05T05:28:48.205Z,82.50
2023-05-05T05:29:48.219Z,81.88
2023-05-05T05:30:48.184Z,81.99
2023-05-05T05:31:48.259Z,81.95
2023-05-05T05:32:48.211Z,81.13
2023-05-05T05:33:48.149Z,81.34
2023-05-05T05:34:48.140Z,81.44
2023-05-05T05:35:48.134Z,81.64
2023-05-05T05:36:48.346Z,81.64
2023-05-05T05:37:48.153Z,81.54
2023-05-05T05:38:48.122Z,81.64
2023-05-05T05:39:48.083Z,82.45
2023-05-05T05:40:48.104Z,82.76
2023-05-05T05:41:48.060Z,82.35
2023-05-05T05:42:48.054Z,81.54
2023-05-05T05:43:48.071Z,81.24
2023-05-05T05:44:48.029Z,81.54
2023-05-05T05:45:48.043Z,81.10
2023-05-05T05:46:48.028Z,80.39
2023-05-05T05:47:48.001Z,80.29
2023-05-05T05:48:47.989Z,80.29
2023-05-05T05:49:47.973Z,80.29
2023-05-05T05:50:47.965Z,80.19
2023-05-05T05:51:47.973Z,80.25
2023-05-05T05:52:47.975Z,79.74
2023-05-05T05:53:47.969Z,80.05
2023-05-05T05:54:47.925Z,79.64
2023-05-05T05:55:47.931Z,79.30
2023-05-05T05:56:47.921Z,79.50
2023-05-05T05:57:47.881Z,79.60
2023-05-05T05:58:47.914Z,79.40
2023-05-05T05:59:47.861Z,79.26
2023-05-05T06:00:47.848Z,79.06
2023-05-05T06:01:47.890Z,78.75
2023-05-05T06:02:48.079Z,78.75
2023-05-05T06:03:47.909Z,78.82
2023-05-05T06:04:47.815Z,78.72
2023-05-05T06:05:55.505Z,78.92
2023-05-05T06:06:47.807Z,78.92
2023-05-05T06:07:47.770Z,79.22
2023-05-05T06:08:47.759Z,79.13
2023-05-05T06:09:47.751Z,78.92
2023-05-05T06:10:47.740Z,78.92
2023-05-05T06:11:47.988Z,78.82
2023-05-05T06:12:47.764Z,78.92
2023-05-05T06:13:47.722Z,79.33
2023-05-05T06:14:47.717Z,79.29
2023-05-05T06:15:47.691Z,79.49
2023-05-05T06:16:47.674Z,79.19
2023-05-05T06:17:47.682Z,79.08
2023-05-05T06:18:47.668Z,79.29
2023-05-05T06:19:47.657Z,79.39
2023-05-05T06:20:47.627Z,79.79
2023-05-05T06:21:47.619Z,79.69
2023-05-05T06:22:47.608Z,80.30
2023-05-05T06:23:47.598Z,79.90
2023-05-05T06:24:47.618Z,80.30
2023-05-05T06:25:47.578Z,80.50
2023-05-05T06:26:47.562Z,80.60
2023-05-05T06:27:47.551Z,80.60
2023-05-05T06:28:47.577Z,80.10
2023-05-05T06:29:47.529Z,79.55
2023-05-05T06:30:47.526Z,79.55
2023-05-05T06:31:47.540Z,79.86
2023-05-05T06:32:47.571Z,79.75
2023-05-05T06:33:47.519Z,79.32
2023-05-05T06:34:47.482Z,79.62
2023-05-05T06:35:47.464Z,79.82
2023-05-05T06:36:47.478Z,79.48
2023-05-05T06:37:47.440Z,79.08
2023-05-05T06:38:47.438Z,79.17
2023-05-05T06:39:47.447Z,78.88
2023-05-05T06:40:47.417Z,78.97
2023-05-05T06:41:47.396Z,79.34
2023-05-05T06:42:47.395Z,79.04
2023-05-05T06:43:47.379Z,78.53
2023-05-05T06:44:47.370Z,78.84
2023-05-05T06:45:47.382Z,78.63
2023-05-05T06:46:47.384Z,78.53
2023-05-05T06:47:47.368Z,78.43
2023-05-05T06:48:47.328Z,79.04
2023-05-05T06:49:47.311Z,78.43
2023-05-05T06:50:47.347Z,78.53
2023-05-05T06:51:47.295Z,78.84
2023-05-05T06:52:47.275Z,78.03
2023-05-05T06:53:47.273Z,78.80
2023-05-05T06:54:47.261Z,78.70
2023-05-05T06:55:47.276Z,78.50
2023-05-05T06:56:47.239Z,78.39
2023-05-05T06:57:47.243Z,78.70
2023-05-05T06:58:47.240Z,78.26
2023-05-05T06:59:47.201Z,78.06
2023-05-05T07:00:47.247Z,77.95
2023-05-05T07:01:47.178Z,77.95
2023-05-05T07:02:47.193Z,78.16
2023-05-05T07:03:47.195Z,77.72
2023-05-05T07:04:47.175Z,78.02
2023-05-05T07:05:47.168Z,77.11
2023-05-05T07:06:47.142Z,77.21
2023-05-05T07:07:47.117Z,77.08
2023-05-05T07:08:47.106Z,76.71
2023-05-05T07:09:47.166Z,76.91
2023-05-05T07:10:47.086Z,77.21
2023-05-05T07:11:47.083Z,77.48
2023-05-05T07:12:47.122Z,76.77
2023-05-05T07:13:47.051Z,76.67
2023-05-05T07:14:47.058Z,76.97
2023-05-05T07:15:47.089Z,76.47
2023-05-05T07:16:47.052Z,76.47
2023-05-05T07:17:47.044Z,76.27
2023-05-05T07:18:47.000Z,76.27
2023-05-05T07:19:46.992Z,76.43
2023-05-05T07:20:46.988Z,75.99
2023-05-05T07:21:46.995Z,75.09
2023-05-05T07:22:46.966Z,75.29
2023-05-05T07:23:46.949Z,74.49
2023-05-05T07:24:47.328Z,74.58
2023-05-05T07:25:46.925Z,74.79
2023-05-05T07:26:46.938Z,75.19
2023-05-05T07:27:46.937Z,74.79
2023-05-05T07:28:46.900Z,74.89
2023-05-05T07:29:46.878Z,74.85
2023-05-05T07:30:46.872Z,73.95
2023-05-05T07:31:46.882Z,74.55
2023-05-05T07:32:46.939Z,74.15
2023-05-05T07:33:46.835Z,74.15
2023-05-05T07:34:46.823Z,73.44
2023-05-05T07:35:46.814Z,74.01
2023-05-05T07:36:46.804Z,73.91
2023-05-05T07:37:46.982Z,73.00
2023-05-05T07:38:46.804Z,73.44
2023-05-05T07:39:46.774Z,73.51
2023-05-05T07:40:46.780Z,73.11
2023-05-05T07:41:46.796Z,73.18
2023-05-05T07:42:46.727Z,73.11
2023-05-05T07:43:46.743Z,72.81
2023-05-05T07:44:46.721Z,73.41
2023-05-05T07:45:46.744Z,73.51
2023-05-05T07:46:46.689Z,73.38
2023-05-05T07:47:46.711Z,73.11
2023-05-05T07:48:46.693Z,73.61
2023-05-05T07:49:46.660Z,73.27
2023-05-05T07:50:46.643Z,73.27
2023-05-05T07:51:46.650Z,72.84
2023-05-05T07:52:51.722Z,72.44
2023-05-05T07:53:46.616Z,72.24
2023-05-05T07:54:46.679Z,72.84
2023-05-05T07:55:46.591Z,72.64
2023-05-05T07:56:46.577Z,72.64
2023-05-05T07:57:46.574Z,71.94
2023-05-05T07:58:46.558Z,72.20
2023-05-05T07:59:46.556Z,71.80
2023-05-05T08:00:46.557Z,71.60
2023-05-05T08:01:46.529Z,71.90
2023-05-05T08:02:46.578Z,71.60
2023-05-05T08:03:46.529Z,72.71
2023-05-05T08:04:46.613Z,71.70
2023-05-05T08:05:46.501Z,71.90
2023-05-05T08:06:46.479Z,71.50
2023-05-05T08:07:46.470Z,71.40
2023-05-05T08:08:46.446Z,71.60
2023-05-05T08:09:46.461Z,71.90
2023-05-05T08:10:46.446Z,71.90
2023-05-05T08:11:46.434Z,72.06
2023-05-05T08:12:46.442Z,71.86
2023-05-05T08:13:46.409Z,71.77
2023-05-05T08:14:46.401Z,70.93
2023-05-05T08:15:46.439Z,70.53
2023-05-05T08:16:46.383Z,69.53
2023-05-05T08:17:46.419Z,70.46
2023-05-05T08:18:46.348Z,70.76
2023-05-05T08:19:46.342Z,70.86
2023-05-05T08:20:46.327Z,71.47
2023-05-05T08:21:46.330Z,70.46
2023-05-05T08:22:46.301Z,70.46
2023-05-05T08:23:46.295Z,70.06
2023-05-05T08:24:46.277Z,70.26
2023-05-05T08:25:46.283Z,70.56
2023-05-05T08:26:46.278Z,70.16
2023-05-05T08:27:46.247Z,70.06
2023-05-05T08:28:46.259Z,70.36
2023-05-05T08:29:46.243Z,70.36
2023-05-05T08:30:46.213Z,69.76
2023-05-05T08:31:46.236Z,70.46
2023-05-05T08:32:46.203Z,70.26
2023-05-05T08:33:46.206Z,70.26
2023-05-05T08:34:46.161Z,70.36
2023-05-05T08:35:46.168Z,69.32
2023-05-05T08:36:46.179Z,69.92
2023-05-05T08:37:46.139Z,69.49
2023-05-05T08:38:46.136Z,68.92
2023-05-05T08:39:46.115Z,69.42
2023-05-05T08:40:46.108Z,69.42
2023-05-05T08:41:46.105Z,69.62
2023-05-05T08:42:46.101Z,69.29
2023-05-05T08:43:46.073Z,69.16
2023-05-05T08:44:46.060Z,68.76
2023-05-05T08:45:46.061Z,68.29
2023-05-05T08:46:46.114Z,68.35
2023-05-05T08:47:46.037Z,68.76
2023-05-05T08:48:46.035Z,68.76
2023-05-05T08:49:46.007Z,68.26
2023-05-05T08:50:46.017Z,68.12
2023-05-05T08:51:45.997Z,67.72
2023-05-05T08:52:46.099Z,68.02
2023-05-05T08:53:45.976Z,66.99
2023-05-05T08:54:45.943Z,67.09
2023-05-05T08:55:45.939Z,66.96
2023-05-05T08:56:45.931Z,66.66
2023-05-05T08:57:45.946Z,66.16
2023-05-05T08:58:45.960Z,67.36
2023-05-05T08:59:45.900Z,66.36
2023-05-05T09:00:45.955Z,65.55
2023-05-05T09:01:45.881Z,65.86
2023-05-05T09:02:45.932Z,65.66
2023-05-05T09:03:46.230Z,66.05
2023-05-05T09:04:45.856Z,66.05
2023-05-05T09:05:45.831Z,66.55
2023-05-05T09:06:45.817Z,65.86
2023-05-05T09:07:45.798Z,65.75
2023-05-05T09:08:45.817Z,65.45
2023-05-05T09:09:45.783Z,65.52
2023-05-05T09:10:45.849Z,64.22
2023-05-05T09:11:45.765Z,64.62
2023-05-05T09:12:45.766Z,64.92
2023-05-05T09:13:45.746Z,64.42
2023-05-05T09:14:45.755Z,65.02
2023-05-05T09:15:45.726Z,65.66
2023-05-05T09:16:45.775Z,64.55
2023-05-05T09:17:45.713Z,65.59
2023-05-05T09:18:45.709Z,65.69
2023-05-05T09:19:45.693Z,65.86
2023-05-05T09:20:45.678Z,66.05
2023-05-05T09:21:45.658Z,65.66
2023-05-05T09:22:45.657Z,65.62
2023-05-05T09:23:45.630Z,64.65
2023-05-05T09:24:45.621Z,64.15
2023-05-05T09:25:45.633Z,64.48
2023-05-05T09:26:45.602Z,65.16
2023-05-05T09:27:45.603Z,64.36
2023-05-05T09:28:45.576Z,64.86
2023-05-05T09:29:45.570Z,64.75
2023-05-05T09:30:45.612Z,63.85
2023-05-05T09:31:45.547Z,64.36
2023-05-05T09:32:45.545Z,64.86
2023-05-05T09:33:45.523Z,63.92
2023-05-05T09:34:45.520Z,63.72
2023-05-05T09:35:45.527Z,63.62
2023-05-05T09:36:45.521Z,63.75
2023-05-05T09:37:45.499Z,64.55
2023-05-05T09:38:45.470Z,64.52
2023-05-05T09:39:45.461Z,64.19
2023-05-05T09:40:45.446Z,64.36
2023-05-05T09:41:45.449Z,63.36
2023-05-05T09:42:45.453Z,63.66
2023-05-05T09:43:45.416Z,64.23
2023-05-05T09:44:45.414Z,62.96
2023-05-05T09:45:45.439Z,62.76
2023-05-05T09:46:45.396Z,62.56
2023-05-05T09:47:45.409Z,63.06
2023-05-05T09:48:45.368Z,63.26
2023-05-05T09:49:45.352Z,63.43
2023-05-05T09:50:45.338Z,62.40
2023-05-05T09:51:45.335Z,61.57
2023-05-05T09:52:46.211Z,61.35
2023-05-05T09:53:45.347Z,59.72
2023-05-05T09:54:45.295Z,59.79
2023-05-05T09:55:45.289Z,58.40
2023-05-05T09:56:45.306Z,58.62
2023-05-05T09:57:45.261Z,58.95
2023-05-05T09:58:45.305Z,59.05
2023-05-05T09:59:45.232Z,59.15
2023-05-05T10:00:45.232Z,58.92
2023-05-05T10:01:45.237Z,58.53
2023-05-05T10:02:45.241Z,58.50
2023-05-05T10:03:45.216Z,57.47
2023-05-05T10:04:45.252Z,57.94
2023-05-05T10:05:45.172Z,58.37
2023-05-05T10:06:45.160Z,57.62
2023-05-05T10:07:45.160Z,56.35
2023-05-05T10:08:45.160Z,57.12
2023-05-05T10:09:45.126Z,57.12
2023-05-05T10:10:45.124Z,56.84
2023-05-05T10:11:45.110Z,54.97
2023-05-05T10:12:45.127Z,53.53
2023-05-05T10:13:45.113Z,53.03
2023-05-05T10:14:45.085Z,52.78
2023-05-05T10:15:45.108Z,51.70
2023-05-05T10:16:45.118Z,51.70
2023-05-05T10:17:53.958Z,51.30
2023-05-05T10:18:45.058Z,51.57
2023-05-05T10:19:45.023Z,51.77
2023-05-05T10:20:45.015Z,51.18
2023-05-05T10:21:45.011Z,51.37
2023-05-05T10:22:44.983Z,52.12
2023-05-05T10:23:44.988Z,51.67
2023-05-05T10:24:44.990Z,52.26
2023-05-05T10:25:44.961Z,54.97
2023-05-05T10:26:44.944Z,57.05
2023-05-05T10:27:44.936Z,58.76
2023-05-05T10:28:44.935Z,58.89
2023-05-05T10:29:44.960Z,59.30
2023-05-05T10:30:44.914Z,59.36
2023-05-05T10:31:44.939Z,55.65
2023-05-05T10:33:44.979Z,56.70
2023-05-05T10:34:44.908Z,57.32
2023-05-05T10:35:44.911Z,57.32
2023-05-05T10:36:44.895Z,58.27
2023-05-05T10:37:44.855Z,59.56
2023-05-05T10:38:44.828Z,58.89
2023-05-05T10:39:44.818Z,59.30
2023-05-05T10:40:44.807Z,60.12
2023-05-05T10:41:44.823Z,59.72
2023-05-05T10:42:44.789Z,58.24
2023-05-05T10:43:44.786Z,58.11
2023-05-05T10:44:44.767Z,56.29
2023-05-05T10:45:44.845Z,54.02
2023-05-05T10:46:44.889Z,53.78
2023-05-05T10:47:44.801Z,51.62
2023-05-05T10:48:44.757Z,50.66
2023-05-05T10:49:44.722Z,50.01
2023-05-05T10:50:44.710Z,50.34
2023-05-05T10:51:44.690Z,51.62
2023-05-05T10:52:44.708Z,51.62
2023-05-05T10:53:44.695Z,53.03
2023-05-05T10:54:44.658Z,55.22
2023-05-05T10:55:44.666Z,56.24
2023-05-05T10:56:44.701Z,57.22
2023-05-05T10:57:44.717Z,58.74
2023-05-05T10:58:59.074Z,58.67
2023-05-05T10:59:44.629Z,59.17
2023-05-05T11:00:44.600Z,59.49
2023-05-05T11:01:44.590Z,60.29
2023-05-05T11:02:44.634Z,60.59
2023-05-05T11:03:44.651Z,60.49
2023-05-05T11:04:44.579Z,61.52
2023-05-05T11:05:44.561Z,60.72
2023-05-05T11:06:44.554Z,60.95
2023-05-05T11:07:44.559Z,61.15
2023-05-05T11:08:44.535Z,61.15
2023-05-05T11:09:44.513Z,59.99
2023-05-05T11:10:44.520Z,59.89
2023-05-05T11:11:44.518Z,60.39
2023-05-05T11:12:44.522Z,60.82
2023-05-05T11:13:44.513Z,60.72
2023-05-05T11:14:44.465Z,60.09
2023-05-05T11:15:44.455Z,58.61
2023-05-05T11:16:44.516Z,56.91
2023-05-05T11:17:44.470Z,57.11
2023-05-05T11:18:44.465Z,57.46
2023-05-05T11:19:44.413Z,56.81
2023-05-05T11:20:44.458Z,54.85
2023-05-05T11:21:44.448Z,54.45
2023-05-05T11:22:44.427Z,55.79
2023-05-05T11:23:44.413Z,56.09
2023-05-05T11:24:44.378Z,56.71
2023-05-05T11:25:44.365Z,57.59
2023-05-05T11:26:44.344Z,57.62
2023-05-05T11:27:44.358Z,58.71
2023-05-05T11:28:44.332Z,58.67
2023-05-05T11:29:44.379Z,59.99
2023-05-05T11:30:44.331Z,60.32
2023-05-05T11:31:44.322Z,60.82
2023-05-05T11:32:44.301Z,61.02
2023-05-05T11:33:44.290Z,60.92
2023-05-05T11:34:44.297Z,61.41
2023-05-05T11:35:44.255Z,61.71
2023-05-05T11:36:44.250Z,61.22
2023-05-05T11:37:44.219Z,61.52
2023-05-05T11:38:44.274Z,61.91
2023-05-05T11:39:44.211Z,60.39
2023-05-05T11:40:44.197Z,59.86
2023-05-05T11:41:44.187Z,58.61
2023-05-05T11:42:44.193Z,57.34
2023-05-05T11:43:44.220Z,56.32
2023-05-05T11:44:44.192Z,56.44
2023-05-05T11:45:44.152Z,56.78
2023-05-05T11:46:44.196Z,54.64
2023-05-05T11:47:44.175Z,53.88
2023-05-05T11:48:44.139Z,52.98
2023-05-05T11:49:44.079Z,53.83
2023-05-05T11:50:44.132Z,54.45
2023-05-05T11:51:44.080Z,53.31
2023-05-05T11:52:44.077Z,54.13
2023-05-05T11:53:44.025Z,55.15
2023-05-05T11:54:44.126Z,55.67
2023-05-05T11:55:44.004Z,55.57
2023-05-05T11:56:44.057Z,55.55
2023-05-05T11:57:43.984Z,55.02
2023-05-05T11:58:44.006Z,54.35
2023-05-05T11:59:43.991Z,54.70
2023-05-05T12:00:44.030Z,52.98
2023-05-05T12:01:43.969Z,52.76
2023-05-05T12:02:44.060Z,52.24
2023-05-05T12:03:44.062Z,52.59
2023-05-05T12:04:43.965Z,51.70
2023-05-05T12:05:43.937Z,51.23
2023-05-05T12:06:49.952Z,51.94
2023-05-05T12:07:43.920Z,52.17
2023-05-05T12:08:43.907Z,52.59
2023-05-05T12:09:43.913Z,52.79
2023-05-05T12:10:43.870Z,53.63
2023-05-05T12:11:43.880Z,54.33
2023-05-05T12:12:43.910Z,54.65
2023-05-05T12:13:43.836Z,55.10
2023-05-05T12:14:43.839Z,54.01
2023-05-05T12:15:43.848Z,54.60
2023-05-05T12:16:43.828Z,54.41
2023-05-05T12:17:43.844Z,53.81
2023-05-05T12:18:43.802Z,54.28
2023-05-05T12:19:43.776Z,54.18
2023-05-05T12:20:43.769Z,53.21
2023-05-05T12:21:43.789Z,53.81
2023-05-05T12:22:43.777Z,53.88
2023-05-05T12:23:43.818Z,54.28
2023-05-05T12:24:43.725Z,53.61
2023-05-05T12:25:43.727Z,54.01
2023-05-05T12:26:43.702Z,54.73
2023-05-05T12:27:43.684Z,54.83
2023-05-05T12:28:43.713Z,54.73
2023-05-05T12:29:43.673Z,55.00
2023-05-05T12:30:43.672Z,55.20
2023-05-05T12:31:43.732Z,55.70
2023-05-05T12:32:43.700Z,55.35
2023-05-05T12:33:43.631Z,55.02
2023-05-05T12:34:43.642Z,54.50
2023-05-05T12:35:43.597Z,53.91
2023-05-05T12:36:43.578Z,54.70
2023-05-05T12:37:43.617Z,53.63
2023-05-05T12:38:43.585Z,53.53
2023-05-05T12:39:43.550Z,53.26
2023-05-05T12:40:43.560Z,54.11
2023-05-05T12:41:43.538Z,54.83
2023-05-05T12:42:45.110Z,55.28
2023-05-05T12:43:43.508Z,55.71
2023-05-05T12:44:43.502Z,56.01
2023-05-05T12:45:43.511Z,55.91
2023-05-05T12:46:43.462Z,56.30
2023-05-05T12:47:43.479Z,56.21
2023-05-05T12:48:45.011Z,56.30
2023-05-05T12:49:43.434Z,56.51
2023-05-05T12:50:43.420Z,57.43
2023-05-05T12:51:43.407Z,57.43
2023-05-05T12:52:43.434Z,58.06
2023-05-05T12:53:43.396Z,57.35